sensor_id;sensor_type;location;lat;lon;timestamp;P1;durP1;ratioP1;P2;durP2;ratioP2
28760;SDS011;15917;50.014;8.352;2023-12-20T00:00:53;7.20;;;4.15;;
28760;SDS011;15917;50.014;8.352;2023-12-20T00:03:19;7.95;;;4.55;;
28760;SDS011;15917;50.014;8.352;2023-12-20T00:05:45;8.15;;;4.88;;
28760;SDS011;15917;50.014;8.352;2023-12-20T00:08:11;8.10;;;4.88;;
28760;SDS011;15917;50.014;8.352;2023-12-20T00:10:36;7.00;;;4.80;;
28760;SDS011;15917;50.014;8.352;2023-12-20T00:13:02;6.18;;;4.28;;
28760;SDS011;15917;50.014;8.352;2023-12-20T00:15:27;6.60;;;4.03;;
28760;SDS011;15917;50.014;8.352;2023-12-20T00:17:53;8.35;;;4.35;;
28760;SDS011;15917;50.014;8.352;2023-12-20T00:20:19;6.22;;;3.80;;
28760;SDS011;15917;50.014;8.352;2023-12-20T00:22:44;8.88;;;4.38;;
28760;SDS011;15917;50.014;8.352;2023-12-20T00:25:10;8.38;;;3.90;;
28760;SDS011;15917;50.014;8.352;2023-12-20T00:27:35;8.90;;;3.88;;
28760;SDS011;15917;50.014;8.352;2023-12-20T00:30:01;6.00;;;3.67;;
28760;SDS011;15917;50.014;8.352;2023-12-20T00:32:27;9.85;;;5.47;;
28760;SDS011;15917;50.014;8.352;2023-12-20T00:34:52;6.28;;;4.13;;
28760;SDS011;15917;50.014;8.352;2023-12-20T00:37:18;4.57;;;3.55;;
28760;SDS011;15917;50.014;8.352;2023-12-20T00:39:43;5.72;;;4.10;;
28760;SDS011;15917;50.014;8.352;2023-12-20T00:42:09;8.57;;;4.25;;
28760;SDS011;15917;50.014;8.352;2023-12-20T00:44:34;6.60;;;3.85;;
28760;SDS011;15917;50.014;8.352;2023-12-20T00:47:00;7.53;;;4.28;;
28760;SDS011;15917;50.014;8.352;2023-12-20T00:49:26;7.78;;;4.55;;
28760;SDS011;15917;50.014;8.352;2023-12-20T00:51:52;5.25;;;3.67;;
28760;SDS011;15917;50.014;8.352;2023-12-20T00:54:17;6.38;;;3.53;;
28760;SDS011;15917;50.014;8.352;2023-12-20T00:56:43;6.53;;;3.67;;
28760;SDS011;15917;50.014;8.352;2023-12-20T00:59:09;5.43;;;3.80;;
28760;SDS011;15917;50.014;8.352;2023-12-20T01:01:34;5.07;;;3.15;;
28760;SDS011;15917;50.014;8.352;2023-12-20T01:04:00;6.65;;;3.80;;
28760;SDS011;15917;50.014;8.352;2023-12-20T01:06:26;4.57;;;3.25;;
28760;SDS011;15917;50.014;8.352;2023-12-20T01:08:51;6.47;;;3.63;;
28760;SDS011;15917;50.014;8.352;2023-12-20T01:11:17;4.78;;;3.08;;
28760;SDS011;15917;50.014;8.352;2023-12-20T01:13:42;9.43;;;3.47;;
28760;SDS011;15917;50.014;8.352;2023-12-20T01:16:11;5.25;;;3.22;;
28760;SDS011;15917;50.014;8.352;2023-12-20T01:18:37;5.85;;;3.53;;
28760;SDS011;15917;50.014;8.352;2023-12-20T01:21:04;5.75;;;3.38;;
28760;SDS011;15917;50.014;8.352;2023-12-20T01:23:30;7.95;;;3.10;;
28760;SDS011;15917;50.014;8.352;2023-12-20T01:25:56;5.57;;;3.30;;
28760;SDS011;15917;50.014;8.352;2023-12-20T01:28:24;8.43;;;3.50;;
28760;SDS011;15917;50.014;8.352;2023-12-20T01:30:50;4.10;;;2.92;;
28760;SDS011;15917;50.014;8.352;2023-12-20T01:33:16;4.60;;;3.08;;
28760;SDS011;15917;50.014;8.352;2023-12-20T01:35:41;6.38;;;3.42;;
28760;SDS011;15917;50.014;8.352;2023-12-20T01:38:07;4.93;;;3.38;;
28760;SDS011;15917;50.014;8.352;2023-12-20T01:40:32;5.10;;;3.05;;
28760;SDS011;15917;50.014;8.352;2023-12-20T01:42:59;4.55;;;3.25;;
28760;SDS011;15917;50.014;8.352;2023-12-20T01:45:34;5.45;;;3.45;;
28760;SDS011;15917;50.014;8.352;2023-12-20T01:47:59;6.15;;;3.45;;
28760;SDS011;15917;50.014;8.352;2023-12-20T01:52:53;5.50;;;2.70;;
28760;SDS011;15917;50.014;8.352;2023-12-20T01:55:22;4.00;;;2.95;;
28760;SDS011;15917;50.014;8.352;2023-12-20T01:57:49;3.38;;;2.40;;
28760;SDS011;15917;50.014;8.352;2023-12-20T02:00:16;6.18;;;2.72;;
28760;SDS011;15917;50.014;8.352;2023-12-20T02:02:43;3.30;;;2.60;;
28760;SDS011;15917;50.014;8.352;2023-12-20T02:05:10;3.37;;;2.40;;
28760;SDS011;15917;50.014;8.352;2023-12-20T02:07:36;6.68;;;2.90;;
28760;SDS011;15917;50.014;8.352;2023-12-20T02:10:02;4.57;;;2.80;;
28760;SDS011;15917;50.014;8.352;2023-12-20T02:12:29;3.22;;;2.53;;
28760;SDS011;15917;50.014;8.352;2023-12-20T02:14:55;5.63;;;3.20;;
28760;SDS011;15917;50.014;8.352;2023-12-20T02:17:20;5.90;;;2.50;;
28760;SDS011;15917;50.014;8.352;2023-12-20T02:19:48;4.10;;;2.92;;
28760;SDS011;15917;50.014;8.352;2023-12-20T02:22:14;6.20;;;2.72;;
28760;SDS011;15917;50.014;8.352;2023-12-20T02:24:40;4.22;;;2.33;;
28760;SDS011;15917;50.014;8.352;2023-12-20T02:27:06;2.40;;;2.08;;
28760;SDS011;15917;50.014;8.352;2023-12-20T02:29:36;4.67;;;2.37;;
28760;SDS011;15917;50.014;8.352;2023-12-20T02:32:01;3.80;;;2.50;;
28760;SDS011;15917;50.014;8.352;2023-12-20T02:34:28;5.47;;;2.35;;
28760;SDS011;15917;50.014;8.352;2023-12-20T02:36:53;2.88;;;2.10;;
28760;SDS011;15917;50.014;8.352;2023-12-20T02:39:19;2.55;;;2.13;;
28760;SDS011;15917;50.014;8.352;2023-12-20T02:41:46;2.90;;;2.13;;
28760;SDS011;15917;50.014;8.352;2023-12-20T02:44:12;4.47;;;2.28;;
28760;SDS011;15917;50.014;8.352;2023-12-20T02:46:38;7.10;;;2.33;;
28760;SDS011;15917;50.014;8.352;2023-12-20T02:49:03;4.60;;;2.42;;
28760;SDS011;15917;50.014;8.352;2023-12-20T02:51:29;5.53;;;2.55;;
28760;SDS011;15917;50.014;8.352;2023-12-20T02:53:54;5.22;;;2.60;;
28760;SDS011;15917;50.014;8.352;2023-12-20T02:56:20;4.85;;;2.08;;
28760;SDS011;15917;50.014;8.352;2023-12-20T02:58:45;3.30;;;2.35;;
28760;SDS011;15917;50.014;8.352;2023-12-20T03:01:11;3.10;;;2.08;;
28760;SDS011;15917;50.014;8.352;2023-12-20T03:03:36;2.67;;;1.90;;
28760;SDS011;15917;50.014;8.352;2023-12-20T03:06:02;3.05;;;2.03;;
28760;SDS011;15917;50.014;8.352;2023-12-20T03:08:28;2.97;;;1.90;;
28760;SDS011;15917;50.014;8.352;2023-12-20T03:10:53;4.70;;;2.10;;
28760;SDS011;15917;50.014;8.352;2023-12-20T03:13:19;3.83;;;1.70;;
28760;SDS011;15917;50.014;8.352;2023-12-20T03:15:48;2.30;;;1.77;;
28760;SDS011;15917;50.014;8.352;2023-12-20T03:18:13;2.47;;;1.60;;
28760;SDS011;15917;50.014;8.352;2023-12-20T03:20:39;3.10;;;1.40;;
28760;SDS011;15917;50.014;8.352;2023-12-20T03:23:06;4.67;;;1.97;;
28760;SDS011;15917;50.014;8.352;2023-12-20T03:25:31;1.73;;;1.45;;
28760;SDS011;15917;50.014;8.352;2023-12-20T03:27:57;2.90;;;1.98;;
28760;SDS011;15917;50.014;8.352;2023-12-20T03:30:23;4.05;;;1.70;;
28760;SDS011;15917;50.014;8.352;2023-12-20T03:32:48;4.30;;;1.83;;
28760;SDS011;15917;50.014;8.352;2023-12-20T03:35:14;2.55;;;1.55;;
28760;SDS011;15917;50.014;8.352;2023-12-20T03:37:39;2.42;;;1.65;;
28760;SDS011;15917;50.014;8.352;2023-12-20T03:40:05;2.83;;;1.70;;
28760;SDS011;15917;50.014;8.352;2023-12-20T03:42:31;2.53;;;1.52;;
28760;SDS011;15917;50.014;8.352;2023-12-20T03:44:57;2.50;;;1.73;;
28760;SDS011;15917;50.014;8.352;2023-12-20T03:47:22;6.95;;;2.08;;
28760;SDS011;15917;50.014;8.352;2023-12-20T03:49:48;3.20;;;1.80;;
28760;SDS011;15917;50.014;8.352;2023-12-20T03:52:13;1.75;;;1.50;;
28760;SDS011;15917;50.014;8.352;2023-12-20T03:54:39;5.80;;;1.55;;
28760;SDS011;15917;50.014;8.352;2023-12-20T03:57:07;4.40;;;1.50;;
28760;SDS011;15917;50.014;8.352;2023-12-20T03:59:36;2.50;;;1.45;;
28760;SDS011;15917;50.014;8.352;2023-12-20T04:02:03;2.13;;;1.85;;
28760;SDS011;15917;50.014;8.352;2023-12-20T04:04:28;1.27;;;1.15;;
28760;SDS011;15917;50.014;8.352;2023-12-20T04:06:54;3.40;;;1.73;;
28760;SDS011;15917;50.014;8.352;2023-12-20T04:09:20;2.45;;;1.60;;
28760;SDS011;15917;50.014;8.352;2023-12-20T04:11:45;5.47;;;2.17;;
28760;SDS011;15917;50.014;8.352;2023-12-20T04:14:11;1.90;;;1.40;;
28760;SDS011;15917;50.014;8.352;2023-12-20T04:16:37;2.10;;;1.30;;
28760;SDS011;15917;50.014;8.352;2023-12-20T04:19:04;2.63;;;1.65;;
28760;SDS011;15917;50.014;8.352;2023-12-20T04:21:29;2.20;;;1.70;;
28760;SDS011;15917;50.014;8.352;2023-12-20T04:23:55;1.75;;;1.40;;
28760;SDS011;15917;50.014;8.352;2023-12-20T04:26:21;1.90;;;1.23;;
28760;SDS011;15917;50.014;8.352;2023-12-20T04:28:47;2.35;;;1.50;;
28760;SDS011;15917;50.014;8.352;2023-12-20T04:31:12;2.40;;;1.20;;
28760;SDS011;15917;50.014;8.352;2023-12-20T04:33:38;2.65;;;1.45;;
28760;SDS011;15917;50.014;8.352;2023-12-20T04:36:04;2.05;;;1.30;;
28760;SDS011;15917;50.014;8.352;2023-12-20T04:38:30;2.28;;;1.20;;
28760;SDS011;15917;50.014;8.352;2023-12-20T04:40:56;2.55;;;1.40;;
28760;SDS011;15917;50.014;8.352;2023-12-20T04:43:21;3.50;;;1.30;;
28760;SDS011;15917;50.014;8.352;2023-12-20T04:45:47;2.28;;;1.45;;
28760;SDS011;15917;50.014;8.352;2023-12-20T04:48:13;2.55;;;1.33;;
28760;SDS011;15917;50.014;8.352;2023-12-20T04:50:38;2.88;;;1.70;;
28760;SDS011;15917;50.014;8.352;2023-12-20T04:53:04;3.17;;;1.38;;
28760;SDS011;15917;50.014;8.352;2023-12-20T04:55:30;5.38;;;1.40;;
28760;SDS011;15917;50.014;8.352;2023-12-20T04:57:55;2.72;;;1.70;;
28760;SDS011;15917;50.014;8.352;2023-12-20T05:00:21;4.38;;;1.60;;
28760;SDS011;15917;50.014;8.352;2023-12-20T05:02:47;7.90;;;1.60;;
28760;SDS011;15917;50.014;8.352;2023-12-20T05:05:13;2.30;;;1.38;;
28760;SDS011;15917;50.014;8.352;2023-12-20T05:07:40;2.42;;;1.50;;
28760;SDS011;15917;50.014;8.352;2023-12-20T05:10:06;3.67;;;1.73;;
28760;SDS011;15917;50.014;8.352;2023-12-20T05:12:33;6.93;;;2.00;;
28760;SDS011;15917;50.014;8.352;2023-12-20T05:14:59;7.20;;;1.40;;
28760;SDS011;15917;50.014;8.352;2023-12-20T05:17:25;6.63;;;1.63;;
28760;SDS011;15917;50.014;8.352;2023-12-20T05:19:51;12.00;;;1.88;;
28760;SDS011;15917;50.014;8.352;2023-12-20T05:22:17;5.15;;;1.35;;
28760;SDS011;15917;50.014;8.352;2023-12-20T05:24:43;8.05;;;1.73;;
28760;SDS011;15917;50.014;8.352;2023-12-20T05:27:09;4.43;;;1.90;;
28760;SDS011;15917;50.014;8.352;2023-12-20T05:29:34;4.95;;;1.50;;
28760;SDS011;15917;50.014;8.352;2023-12-20T05:32:00;6.05;;;1.65;;
28760;SDS011;15917;50.014;8.352;2023-12-20T05:34:25;2.83;;;1.42;;
28760;SDS011;15917;50.014;8.352;2023-12-20T05:36:51;4.57;;;1.67;;
28760;SDS011;15917;50.014;8.352;2023-12-20T05:39:17;6.72;;;1.75;;
28760;SDS011;15917;50.014;8.352;2023-12-20T05:41:42;3.97;;;1.27;;
28760;SDS011;15917;50.014;8.352;2023-12-20T05:44:08;11.95;;;1.33;;
28760;SDS011;15917;50.014;8.352;2023-12-20T05:46:34;7.00;;;1.45;;
28760;SDS011;15917;50.014;8.352;2023-12-20T05:48:59;5.00;;;1.40;;
28760;SDS011;15917;50.014;8.352;2023-12-20T05:51:25;3.15;;;1.20;;
28760;SDS011;15917;50.014;8.352;2023-12-20T05:53:50;7.05;;;1.20;;
28760;SDS011;15917;50.014;8.352;2023-12-20T05:56:16;4.40;;;1.40;;
28760;SDS011;15917;50.014;8.352;2023-12-20T05:58:42;5.55;;;1.42;;
28760;SDS011;15917;50.014;8.352;2023-12-20T06:01:08;8.65;;;1.50;;
28760;SDS011;15917;50.014;8.352;2023-12-20T06:03:34;8.48;;;1.52;;
28760;SDS011;15917;50.014;8.352;2023-12-20T06:06:04;5.72;;;1.42;;
28760;SDS011;15917;50.014;8.352;2023-12-20T06:08:33;6.70;;;1.67;;
28760;SDS011;15917;50.014;8.352;2023-12-20T06:10:59;7.35;;;1.63;;
28760;SDS011;15917;50.014;8.352;2023-12-20T06:13:25;7.65;;;1.65;;
28760;SDS011;15917;50.014;8.352;2023-12-20T06:15:51;11.02;;;2.30;;
28760;SDS011;15917;50.014;8.352;2023-12-20T06:18:19;13.98;;;4.18;;
28760;SDS011;15917;50.014;8.352;2023-12-20T06:20:44;9.68;;;4.43;;
28760;SDS011;15917;50.014;8.352;2023-12-20T06:23:10;11.18;;;2.58;;
28760;SDS011;15917;50.014;8.352;2023-12-20T06:25:36;8.18;;;2.03;;
28760;SDS011;15917;50.014;8.352;2023-12-20T06:28:01;9.18;;;1.88;;
28760;SDS011;15917;50.014;8.352;2023-12-20T06:30:27;18.95;;;3.70;;
28760;SDS011;15917;50.014;8.352;2023-12-20T06:32:53;13.13;;;2.40;;
28760;SDS011;15917;50.014;8.352;2023-12-20T06:35:19;7.65;;;2.28;;
28760;SDS011;15917;50.014;8.352;2023-12-20T06:37:45;7.80;;;1.88;;
28760;SDS011;15917;50.014;8.352;2023-12-20T06:40:11;8.07;;;1.80;;
28760;SDS011;15917;50.014;8.352;2023-12-20T06:42:36;5.88;;;1.65;;
28760;SDS011;15917;50.014;8.352;2023-12-20T06:45:02;6.57;;;1.50;;
28760;SDS011;15917;50.014;8.352;2023-12-20T06:47:28;6.75;;;1.70;;
28760;SDS011;15917;50.014;8.352;2023-12-20T06:49:54;7.43;;;1.33;;
28760;SDS011;15917;50.014;8.352;2023-12-20T06:52:20;7.43;;;2.13;;
28760;SDS011;15917;50.014;8.352;2023-12-20T06:54:45;6.68;;;1.40;;
28760;SDS011;15917;50.014;8.352;2023-12-20T06:57:11;4.28;;;1.20;;
28760;SDS011;15917;50.014;8.352;2023-12-20T06:59:40;13.63;;;1.98;;
28760;SDS011;15917;50.014;8.352;2023-12-20T07:02:06;7.63;;;2.25;;
28760;SDS011;15917;50.014;8.352;2023-12-20T07:04:31;6.63;;;1.52;;
28760;SDS011;15917;50.014;8.352;2023-12-20T07:06:57;7.13;;;1.40;;
28760;SDS011;15917;50.014;8.352;2023-12-20T07:11:51;5.70;;;1.52;;
28760;SDS011;15917;50.014;8.352;2023-12-20T07:14:17;5.30;;;1.27;;
28760;SDS011;15917;50.014;8.352;2023-12-20T07:16:42;9.65;;;1.83;;
28760;SDS011;15917;50.014;8.352;2023-12-20T07:19:08;3.67;;;1.42;;
28760;SDS011;15917;50.014;8.352;2023-12-20T07:21:33;6.40;;;1.58;;
28760;SDS011;15917;50.014;8.352;2023-12-20T07:23:59;8.55;;;1.40;;
28760;SDS011;15917;50.014;8.352;2023-12-20T07:26:25;7.65;;;1.30;;
28760;SDS011;15917;50.014;8.352;2023-12-20T07:28:50;5.75;;;1.55;;
28760;SDS011;15917;50.014;8.352;2023-12-20T07:31:16;9.65;;;2.10;;
28760;SDS011;15917;50.014;8.352;2023-12-20T07:33:41;13.18;;;2.65;;
28760;SDS011;15917;50.014;8.352;2023-12-20T07:36:07;7.18;;;1.55;;
28760;SDS011;15917;50.014;8.352;2023-12-20T07:38:33;8.98;;;1.48;;
28760;SDS011;15917;50.014;8.352;2023-12-20T07:40:59;6.30;;;1.77;;
28760;SDS011;15917;50.014;8.352;2023-12-20T07:43:24;7.53;;;1.60;;
28760;SDS011;15917;50.014;8.352;2023-12-20T07:45:50;6.07;;;1.52;;
28760;SDS011;15917;50.014;8.352;2023-12-20T07:48:17;12.82;;;2.10;;
28760;SDS011;15917;50.014;8.352;2023-12-20T07:50:42;5.40;;;1.70;;
28760;SDS011;15917;50.014;8.352;2023-12-20T07:53:08;11.15;;;2.05;;
28760;SDS011;15917;50.014;8.352;2023-12-20T07:55:33;4.80;;;1.83;;
28760;SDS011;15917;50.014;8.352;2023-12-20T07:57:59;6.95;;;1.88;;
28760;SDS011;15917;50.014;8.352;2023-12-20T08:00:25;7.05;;;1.58;;
28760;SDS011;15917;50.014;8.352;2023-12-20T08:02:51;11.73;;;1.55;;
28760;SDS011;15917;50.014;8.352;2023-12-20T08:05:17;14.93;;;2.08;;
28760;SDS011;15917;50.014;8.352;2023-12-20T08:07:42;8.93;;;1.45;;
28760;SDS011;15917;50.014;8.352;2023-12-20T08:10:08;9.68;;;2.50;;
28760;SDS011;15917;50.014;8.352;2023-12-20T08:12:34;5.05;;;1.27;;
28760;SDS011;15917;50.014;8.352;2023-12-20T08:14:59;11.68;;;2.95;;
28760;SDS011;15917;50.014;8.352;2023-12-20T08:17:26;9.68;;;1.75;;
28760;SDS011;15917;50.014;8.352;2023-12-20T08:19:52;10.45;;;1.95;;
28760;SDS011;15917;50.014;8.352;2023-12-20T08:22:17;8.10;;;1.52;;
28760;SDS011;15917;50.014;8.352;2023-12-20T08:24:43;10.95;;;1.90;;
28760;SDS011;15917;50.014;8.352;2023-12-20T08:27:09;13.43;;;2.10;;
28760;SDS011;15917;50.014;8.352;2023-12-20T08:29:34;6.70;;;1.95;;
28760;SDS011;15917;50.014;8.352;2023-12-20T08:32:01;14.40;;;1.90;;
28760;SDS011;15917;50.014;8.352;2023-12-20T08:34:26;7.78;;;1.70;;
28760;SDS011;15917;50.014;8.352;2023-12-20T08:36:55;11.52;;;2.45;;
28760;SDS011;15917;50.014;8.352;2023-12-20T08:39:21;14.13;;;2.22;;
28760;SDS011;15917;50.014;8.352;2023-12-20T08:41:46;11.35;;;2.72;;
28760;SDS011;15917;50.014;8.352;2023-12-20T08:44:12;14.20;;;1.90;;
28760;SDS011;15917;50.014;8.352;2023-12-20T08:46:38;18.95;;;2.83;;
28760;SDS011;15917;50.014;8.352;2023-12-20T08:49:03;13.43;;;2.53;;
28760;SDS011;15917;50.014;8.352;2023-12-20T08:51:30;9.95;;;2.15;;
28760;SDS011;15917;50.014;8.352;2023-12-20T08:53:55;10.10;;;2.20;;
28760;SDS011;15917;50.014;8.352;2023-12-20T08:56:21;10.15;;;2.05;;
28760;SDS011;15917;50.014;8.352;2023-12-20T08:58:46;16.80;;;2.72;;
28760;SDS011;15917;50.014;8.352;2023-12-20T09:01:12;10.85;;;2.00;;
28760;SDS011;15917;50.014;8.352;2023-12-20T09:03:39;15.32;;;2.33;;
28760;SDS011;15917;50.014;8.352;2023-12-20T09:06:04;8.55;;;1.98;;
28760;SDS011;15917;50.014;8.352;2023-12-20T09:08:30;12.27;;;1.80;;
28760;SDS011;15917;50.014;8.352;2023-12-20T09:10:56;8.10;;;1.90;;
28760;SDS011;15917;50.014;8.352;2023-12-20T09:13:22;13.55;;;2.53;;
28760;SDS011;15917;50.014;8.352;2023-12-20T09:15:53;15.52;;;3.17;;
28760;SDS011;15917;50.014;8.352;2023-12-20T09:18:21;10.07;;;2.08;;
28760;SDS011;15917;50.014;8.352;2023-12-20T09:20:47;7.57;;;2.00;;
28760;SDS011;15917;50.014;8.352;2023-12-20T09:23:13;11.63;;;2.70;;
28760;SDS011;15917;50.014;8.352;2023-12-20T09:25:38;8.82;;;1.85;;
28760;SDS011;15917;50.014;8.352;2023-12-20T09:28:04;17.50;;;2.10;;
28760;SDS011;15917;50.014;8.352;2023-12-20T09:30:30;9.35;;;2.47;;
28760;SDS011;15917;50.014;8.352;2023-12-20T09:32:57;8.98;;;2.00;;
28760;SDS011;15917;50.014;8.352;2023-12-20T09:35:22;14.75;;;2.25;;
28760;SDS011;15917;50.014;8.352;2023-12-20T09:37:48;8.57;;;1.90;;
28760;SDS011;15917;50.014;8.352;2023-12-20T09:40:14;10.57;;;2.10;;
28760;SDS011;15917;50.014;8.352;2023-12-20T09:42:53;13.10;;;1.83;;
28760;SDS011;15917;50.014;8.352;2023-12-20T09:45:21;12.20;;;2.50;;
28760;SDS011;15917;50.014;8.352;2023-12-20T09:47:47;11.02;;;2.70;;
28760;SDS011;15917;50.014;8.352;2023-12-20T09:50:18;8.45;;;1.77;;
28760;SDS011;15917;50.014;8.352;2023-12-20T09:52:46;19.30;;;2.60;;
28760;SDS011;15917;50.014;8.352;2023-12-20T09:55:16;17.13;;;2.55;;
28760;SDS011;15917;50.014;8.352;2023-12-20T09:57:44;11.50;;;2.15;;
28760;SDS011;15917;50.014;8.352;2023-12-20T10:00:10;10.52;;;1.73;;
28760;SDS011;15917;50.014;8.352;2023-12-20T10:02:41;3.72;;;1.85;;
28760;SDS011;15917;50.014;8.352;2023-12-20T10:05:24;10.50;;;1.58;;
28760;SDS011;15917;50.014;8.352;2023-12-20T10:07:55;12.65;;;1.70;;
28760;SDS011;15917;50.014;8.352;2023-12-20T10:10:21;13.10;;;2.50;;
28760;SDS011;15917;50.014;8.352;2023-12-20T10:15:29;9.98;;;1.55;;
28760;SDS011;15917;50.014;8.352;2023-12-20T10:17:56;9.43;;;1.95;;
28760;SDS011;15917;50.014;8.352;2023-12-20T10:20:22;11.07;;;2.22;;
28760;SDS011;15917;50.014;8.352;2023-12-20T10:22:47;13.02;;;2.22;;
28760;SDS011;15917;50.014;8.352;2023-12-20T10:25:14;12.30;;;2.67;;
28760;SDS011;15917;50.014;8.352;2023-12-20T10:27:40;15.10;;;2.83;;
28760;SDS011;15917;50.014;8.352;2023-12-20T10:30:06;17.45;;;2.60;;
28760;SDS011;15917;50.014;8.352;2023-12-20T10:32:32;9.68;;;1.65;;
28760;SDS011;15917;50.014;8.352;2023-12-20T10:34:57;9.98;;;2.05;;
28760;SDS011;15917;50.014;8.352;2023-12-20T10:37:24;9.75;;;2.22;;
28760;SDS011;15917;50.014;8.352;2023-12-20T10:39:50;6.55;;;1.50;;
28760;SDS011;15917;50.014;8.352;2023-12-20T10:42:24;11.73;;;1.90;;
28760;SDS011;15917;50.014;8.352;2023-12-20T10:44:51;5.53;;;1.50;;
28760;SDS011;15917;50.014;8.352;2023-12-20T10:47:19;21.05;;;2.72;;
28760;SDS011;15917;50.014;8.352;2023-12-20T10:49:45;7.45;;;1.92;;
28760;SDS011;15917;50.014;8.352;2023-12-20T10:52:12;15.25;;;2.25;;
28760;SDS011;15917;50.014;8.352;2023-12-20T10:54:38;11.38;;;1.83;;
28760;SDS011;15917;50.014;8.352;2023-12-20T10:57:05;9.57;;;2.00;;
28760;SDS011;15917;50.014;8.352;2023-12-20T10:59:32;8.20;;;1.77;;
28760;SDS011;15917;50.014;8.352;2023-12-20T11:02:02;7.15;;;1.45;;
28760;SDS011;15917;50.014;8.352;2023-12-20T11:04:38;8.80;;;1.50;;
28760;SDS011;15917;50.014;8.352;2023-12-20T11:07:19;10.05;;;1.90;;
28760;SDS011;15917;50.014;8.352;2023-12-20T11:09:57;5.63;;;1.30;;
28760;SDS011;15917;50.014;8.352;2023-12-20T11:14:57;7.93;;;1.42;;
28760;SDS011;15917;50.014;8.352;2023-12-20T11:17:28;11.02;;;1.92;;
28760;SDS011;15917;50.014;8.352;2023-12-20T11:20:03;12.00;;;1.90;;
28760;SDS011;15917;50.014;8.352;2023-12-20T11:22:30;7.95;;;1.80;;
28760;SDS011;15917;50.014;8.352;2023-12-20T11:25:03;15.25;;;2.53;;
28760;SDS011;15917;50.014;8.352;2023-12-20T11:27:31;5.18;;;1.52;;
28760;SDS011;15917;50.014;8.352;2023-12-20T11:29:58;13.65;;;2.08;;
28760;SDS011;15917;50.014;8.352;2023-12-20T11:37:31;12.77;;;1.83;;
28760;SDS011;15917;50.014;8.352;2023-12-20T11:40:01;8.75;;;1.70;;
28760;SDS011;15917;50.014;8.352;2023-12-20T11:42:50;11.75;;;1.55;;
28760;SDS011;15917;50.014;8.352;2023-12-20T11:45:17;8.30;;;1.67;;
28760;SDS011;15917;50.014;8.352;2023-12-20T11:47:46;10.35;;;1.73;;
28760;SDS011;15917;50.014;8.352;2023-12-20T11:50:15;11.75;;;1.98;;
28760;SDS011;15917;50.014;8.352;2023-12-20T11:52:43;9.52;;;1.88;;
28760;SDS011;15917;50.014;8.352;2023-12-20T11:55:09;6.15;;;1.48;;
28760;SDS011;15917;50.014;8.352;2023-12-20T11:57:35;6.60;;;1.58;;
28760;SDS011;15917;50.014;8.352;2023-12-20T12:00:02;12.45;;;1.40;;
28760;SDS011;15917;50.014;8.352;2023-12-20T12:02:37;12.23;;;1.63;;
28760;SDS011;15917;50.014;8.352;2023-12-20T12:05:03;11.55;;;1.92;;
28760;SDS011;15917;50.014;8.352;2023-12-20T12:07:31;16.45;;;2.40;;
28760;SDS011;15917;50.014;8.352;2023-12-20T12:09:57;7.82;;;1.73;;
28760;SDS011;15917;50.014;8.352;2023-12-20T12:12:23;8.52;;;1.77;;
28760;SDS011;15917;50.014;8.352;2023-12-20T12:14:50;7.57;;;1.50;;
28760;SDS011;15917;50.014;8.352;2023-12-20T12:17:16;9.05;;;2.10;;
28760;SDS011;15917;50.014;8.352;2023-12-20T12:19:42;12.20;;;1.38;;
28760;SDS011;15917;50.014;8.352;2023-12-20T12:22:09;7.75;;;1.65;;
28760;SDS011;15917;50.014;8.352;2023-12-20T12:24:41;9.13;;;1.70;;
28760;SDS011;15917;50.014;8.352;2023-12-20T12:27:07;6.30;;;1.33;;
28760;SDS011;15917;50.014;8.352;2023-12-20T12:29:34;11.35;;;2.28;;
28760;SDS011;15917;50.014;8.352;2023-12-20T12:32:00;8.00;;;1.52;;
28760;SDS011;15917;50.014;8.352;2023-12-20T12:34:29;6.78;;;1.60;;
28760;SDS011;15917;50.014;8.352;2023-12-20T12:36:56;9.38;;;1.63;;
28760;SDS011;15917;50.014;8.352;2023-12-20T12:39:23;5.55;;;1.63;;
28760;SDS011;15917;50.014;8.352;2023-12-20T12:41:50;5.60;;;1.55;;
28760;SDS011;15917;50.014;8.352;2023-12-20T12:44:16;11.88;;;1.80;;
28760;SDS011;15917;50.014;8.352;2023-12-20T12:46:42;9.43;;;1.83;;
28760;SDS011;15917;50.014;8.352;2023-12-20T12:49:09;11.43;;;2.00;;
28760;SDS011;15917;50.014;8.352;2023-12-20T12:51:35;26.13;;;2.13;;
28760;SDS011;15917;50.014;8.352;2023-12-20T12:54:00;6.47;;;1.52;;
28760;SDS011;15917;50.014;8.352;2023-12-20T12:56:26;7.50;;;1.90;;
28760;SDS011;15917;50.014;8.352;2023-12-20T12:58:51;7.85;;;2.20;;
28760;SDS011;15917;50.014;8.352;2023-12-20T13:01:17;6.40;;;2.08;;
28760;SDS011;15917;50.014;8.352;2023-12-20T13:03:42;9.57;;;2.05;;
28760;SDS011;15917;50.014;8.352;2023-12-20T13:06:08;6.15;;;1.88;;
28760;SDS011;15917;50.014;8.352;2023-12-20T13:08:34;15.35;;;2.50;;
28760;SDS011;15917;50.014;8.352;2023-12-20T13:11:00;13.30;;;3.40;;
28760;SDS011;15917;50.014;8.352;2023-12-20T13:13:29;16.48;;;2.35;;
28760;SDS011;15917;50.014;8.352;2023-12-20T13:15:55;9.55;;;1.90;;
28760;SDS011;15917;50.014;8.352;2023-12-20T13:18:24;9.65;;;2.42;;
28760;SDS011;15917;50.014;8.352;2023-12-20T13:20:49;10.77;;;2.40;;
28760;SDS011;15917;50.014;8.352;2023-12-20T13:23:15;7.32;;;1.83;;
28760;SDS011;15917;50.014;8.352;2023-12-20T13:25:43;14.32;;;1.60;;
28760;SDS011;15917;50.014;8.352;2023-12-20T13:28:10;11.43;;;2.53;;
28760;SDS011;15917;50.014;8.352;2023-12-20T13:30:36;7.07;;;1.67;;
28760;SDS011;15917;50.014;8.352;2023-12-20T13:33:02;8.80;;;1.88;;
28760;SDS011;15917;50.014;8.352;2023-12-20T13:35:27;11.65;;;1.85;;
28760;SDS011;15917;50.014;8.352;2023-12-20T13:37:53;6.47;;;1.33;;
28760;SDS011;15917;50.014;8.352;2023-12-20T13:40:19;6.75;;;1.83;;
28760;SDS011;15917;50.014;8.352;2023-12-20T13:42:44;6.68;;;1.42;;
28760;SDS011;15917;50.014;8.352;2023-12-20T13:45:10;10.07;;;1.30;;
28760;SDS011;15917;50.014;8.352;2023-12-20T13:47:36;6.72;;;1.35;;
28760;SDS011;15917;50.014;8.352;2023-12-20T13:50:02;10.80;;;1.65;;
28760;SDS011;15917;50.014;8.352;2023-12-20T13:52:28;7.27;;;1.33;;
28760;SDS011;15917;50.014;8.352;2023-12-20T13:54:54;5.65;;;1.33;;
28760;SDS011;15917;50.014;8.352;2023-12-20T13:57:20;7.70;;;1.38;;
28760;SDS011;15917;50.014;8.352;2023-12-20T13:59:46;11.68;;;1.42;;
28760;SDS011;15917;50.014;8.352;2023-12-20T14:02:11;7.75;;;1.60;;
28760;SDS011;15917;50.014;8.352;2023-12-20T14:04:37;5.68;;;1.30;;
28760;SDS011;15917;50.014;8.352;2023-12-20T14:07:04;7.78;;;1.70;;
28760;SDS011;15917;50.014;8.352;2023-12-20T14:09:30;8.20;;;1.98;;
28760;SDS011;15917;50.014;8.352;2023-12-20T14:11:55;9.63;;;2.20;;
28760;SDS011;15917;50.014;8.352;2023-12-20T14:14:21;4.72;;;1.10;;
28760;SDS011;15917;50.014;8.352;2023-12-20T14:16:47;8.55;;;1.80;;
28760;SDS011;15917;50.014;8.352;2023-12-20T14:19:13;6.88;;;2.22;;
28760;SDS011;15917;50.014;8.352;2023-12-20T14:21:39;8.93;;;1.90;;
28760;SDS011;15917;50.014;8.352;2023-12-20T14:24:04;8.18;;;1.48;;
28760;SDS011;15917;50.014;8.352;2023-12-20T14:26:30;5.38;;;1.20;;
28760;SDS011;15917;50.014;8.352;2023-12-20T14:28:56;10.60;;;1.40;;
28760;SDS011;15917;50.014;8.352;2023-12-20T14:31:23;16.63;;;1.70;;
28760;SDS011;15917;50.014;8.352;2023-12-20T14:33:50;9.40;;;2.13;;
28760;SDS011;15917;50.014;8.352;2023-12-20T14:36:18;5.78;;;1.33;;
28760;SDS011;15917;50.014;8.352;2023-12-20T14:38:45;9.95;;;1.55;;
28760;SDS011;15917;50.014;8.352;2023-12-20T14:41:11;12.63;;;1.50;;
28760;SDS011;15917;50.014;8.352;2023-12-20T14:43:37;8.90;;;1.85;;
28760;SDS011;15917;50.014;8.352;2023-12-20T14:46:03;7.50;;;1.90;;
28760;SDS011;15917;50.014;8.352;2023-12-20T14:48:30;5.28;;;1.42;;
28760;SDS011;15917;50.014;8.352;2023-12-20T14:50:57;9.25;;;0.98;;
28760;SDS011;15917;50.014;8.352;2023-12-20T14:53:24;5.78;;;1.55;;
28760;SDS011;15917;50.014;8.352;2023-12-20T14:55:50;5.63;;;1.38;;